Time;durP1;ratioP1;P1;durP2;ratioP2;P2;SDS_P1;SDS_P2;PMS_P1;PMS_P2;Temp;Humidity;BMP_temperature;BMP_pressure;BME280_temperature;BME280_humidity;BME280_pressure;Samples;Min_cycle;Max_cycle;Signal;HPM_P1;HPM_P2
2023/03/15 00:03:45;;;;;;;13.43;2.33;;;3.90;99.90;;;;;;7337215;32;20129;-55
2023/03/15 00:07:47;;;;;;;10.18;2.25;;;3.80;99.90;;;;;;7340736;32;20643;-55
2023/03/15 00:11:50;;;;;;;12.27;2.42;;;3.80;99.90;;;;;;7337130;32;20573;-56
2023/03/15 00:15:55;;;;;;;8.88;2.58;;;3.80;99.90;;;;;;7335691;32;20335;-55
2023/03/15 00:19:57;;;;;;;13.90;2.47;;;3.70;99.90;;;;;;7334508;32;20702;-53
2023/03/15 00:23:59;;;;;;;12.75;2.33;;;3.80;99.90;;;;;;7342452;32;20167;-54
2023/03/15 00:28:00;;;;;;;13.95;3.35;;;3.70;99.90;;;;;;7333627;32;20137;-55
2023/03/15 00:32:02;;;;;;;15.45;3.62;;;3.70;99.90;;;;;;7332940;32;20220;-55
2023/03/15 00:36:06;;;;;;;10.13;3.10;;;3.70;99.90;;;;;;7332988;32;20519;-55
2023/03/15 00:40:09;;;;;;;11.80;3.17;;;3.60;99.90;;;;;;7332512;32;20119;-55
2023/03/15 00:44:11;;;;;;;7.93;3.00;;;3.10;99.90;;;;;;7335780;32;20111;-55
2023/03/15 00:48:12;;;;;;;9.43;2.83;;;2.80;99.90;;;;;;7331432;32;20270;-55
2023/03/15 00:52:14;;;;;;;10.57;2.67;;;2.60;99.90;;;;;;7339075;32;20167;-55
2023/03/15 00:56:19;;;;;;;6.85;2.37;;;2.50;99.90;;;;;;7341390;32;20138;-54
2023/03/15 01:00:23;;;;;;;7.43;2.85;;;2.50;99.90;;;;;;7336972;32;20142;-55
2023/03/15 01:04:25;;;;;;;7.28;2.30;;;2.50;99.90;;;;;;7341301;32;20209;-55
2023/03/15 01:08:27;;;;;;;7.45;2.70;;;2.50;99.90;;;;;;7337404;32;20128;-55
2023/03/15 01:12:31;;;;;;;7.18;2.50;;;2.50;99.90;;;;;;7330968;32;20116;-54
2023/03/15 01:16:33;;;;;;;10.98;2.62;;;2.50;99.90;;;;;;7337748;32;20273;-55
2023/03/15 01:20:35;;;;;;;8.90;3.20;;;2.40;99.90;;;;;;7343258;32;20172;-55
2023/03/15 01:24:36;;;;;;;7.37;2.62;;;2.40;99.90;;;;;;7343614;32;20112;-54
2023/03/15 01:28:39;;;;;;;11.90;2.53;;;2.40;99.90;;;;;;7337257;32;20199;-56
2023/03/15 01:32:40;;;;;;;10.88;2.03;;;2.40;99.90;;;;;;7340088;32;20192;-55
2023/03/15 01:36:42;;;;;;;5.60;2.55;;;2.20;99.90;;;;;;7336408;32;20133;-55
2023/03/15 01:40:45;;;;;;;6.62;2.92;;;2.20;99.90;;;;;;7339997;32;20174;-55
2023/03/15 01:44:53;;;;;;;5.82;2.90;;;2.00;99.90;;;;;;7337563;32;20442;-55
2023/03/15 01:49:13;;;;;;;11.95;3.60;;;2.00;99.90;;;;;;7336959;32;20161;-54
2023/03/15 01:53:15;;;;;;;7.72;3.67;;;2.00;99.90;;;;;;7341220;32;20111;-56
2023/03/15 01:57:24;;;;;;;9.70;3.70;;;2.00;99.90;;;;;;7345001;32;20108;-56
2023/03/15 02:01:27;;;;;;;10.70;4.62;;;2.00;99.90;;;;;;7342115;32;20587;-55
2023/03/15 02:05:33;;;;;;;10.48;6.10;;;2.10;99.90;;;;;;7337488;32;20162;-57
2023/03/15 02:09:51;;;;;;;15.05;5.95;;;2.00;99.90;;;;;;7334499;32;20107;-56
2023/03/15 02:13:55;;;;;;;11.43;6.87;;;2.00;99.90;;;;;;7336620;32;20202;-56
2023/03/15 02:17:57;;;;;;;12.20;6.78;;;2.10;99.90;;;;;;7333679;32;20111;-56
2023/03/15 02:22:17;;;;;;;12.50;7.25;;;2.20;99.90;;;;;;7335955;32;20128;-57
2023/03/15 02:26:24;;;;;;;13.80;7.85;;;2.20;99.90;;;;;;7341639;32;20320;-57
2023/03/15 02:30:26;;;;;;;16.25;8.35;;;2.30;99.90;;;;;;7337237;32;20226;-54
2023/03/15 02:34:28;;;;;;;12.80;7.97;;;2.30;99.90;;;;;;7333550;32;20126;-55
2023/03/15 02:38:29;;;;;;;11.90;8.45;;;2.30;99.90;;;;;;7343111;32;20486;-55
2023/03/15 02:42:31;;;;;;;14.68;8.38;;;2.40;99.90;;;;;;7338923;32;20107;-55
2023/03/15 02:46:34;;;;;;;14.07;8.70;;;2.30;99.90;;;;;;7329531;32;20399;-54
2023/03/15 02:50:36;;;;;;;16.98;8.27;;;2.50;99.90;;;;;;7338059;32;20135;-54
2023/03/15 02:54:42;;;;;;;11.20;7.68;;;2.50;99.90;;;;;;7334675;32;20110;-56
2023/03/15 02:58:44;;;;;;;14.38;8.90;;;2.60;99.90;;;;;;7329996;32;20277;-55
2023/03/15 03:02:47;;;;;;;18.17;9.98;;;2.60;99.90;;;;;;7332358;32;20182;-55
2023/03/15 03:06:49;;;;;;;14.82;9.05;;;2.60;99.90;;;;;;7337330;32;20436;-55
2023/03/15 03:10:50;;;;;;;15.82;8.75;;;2.70;99.90;;;;;;7331245;32;20190;-54
2023/03/15 03:14:52;;;;;;;16.02;8.85;;;2.80;99.90;;;;;;7327211;32;20103;-54
2023/03/15 03:18:54;;;;;;;17.73;8.15;;;2.90;99.90;;;;;;7331938;32;20948;-54
2023/03/15 03:22:55;;;;;;;9.18;5.20;;;2.90;99.90;;;;;;7334396;32;20149;-55
2023/03/15 03:26:57;;;;;;;6.53;3.60;;;3.00;99.90;;;;;;7340346;32;20178;-54
2023/03/15 03:30:59;;;;;;;21.12;11.57;;;3.00;99.90;;;;;;7331257;32;20436;-55
2023/03/15 03:35:01;;;;;;;15.65;9.15;;;3.00;99.90;;;;;;7327910;32;20111;-54
2023/03/15 03:39:03;;;;;;;8.77;4.35;;;2.90;99.90;;;;;;7337257;32;20133;-55
2023/03/15 03:43:06;;;;;;;5.35;3.42;;;2.80;99.90;;;;;;7335202;32;20103;-54
2023/03/15 03:47:07;;;;;;;6.72;3.20;;;2.60;99.90;;;;;;7334816;32;20141;-54
2023/03/15 03:51:10;;;;;;;6.72;3.22;;;2.40;99.90;;;;;;7337563;32;20139;-55
2023/03/15 03:55:12;;;;;;;4.90;3.45;;;2.30;99.90;;;;;;7338225;32;20214;-54
2023/03/15 03:59:14;;;;;;;6.18;3.30;;;2.10;99.90;;;;;;7341479;32;20859;-54
2023/03/15 04:03:15;;;;;;;3.95;3.03;;;1.90;99.90;;;;;;7330732;32;20485;-54
2023/03/15 04:07:17;;;;;;;3.75;2.80;;;1.70;99.90;;;;;;7332539;32;20103;-54
2023/03/15 04:11:19;;;;;;;5.03;3.20;;;1.60;99.90;;;;;;7331550;32;20125;-56
2023/03/15 04:15:21;;;;;;;4.68;3.35;;;1.50;99.90;;;;;;7341076;32;20141;-55
2023/03/15 04:19:23;;;;;;;5.72;3.65;;;1.40;99.90;;;;;;7337258;32;20182;-55
2023/03/15 04:23:25;;;;;;;5.32;3.95;;;1.40;99.90;;;;;;7341156;32;20248;-55
2023/03/15 04:27:28;;;;;;;6.43;4.20;;;1.30;99.90;;;;;;7345255;32;20744;-54
2023/03/15 04:31:36;;;;;;;8.32;5.07;;;1.30;99.90;;;;;;7344807;32;20178;-55
2023/03/15 04:35:38;;;;;;;8.18;5.47;;;1.30;99.90;;;;;;7339322;32;20122;-56
2023/03/15 04:39:41;;;;;;;8.63;6.03;;;1.30;99.90;;;;;;7341917;32;20143;-56
2023/03/15 04:43:44;;;;;;;8.23;6.30;;;1.30;99.90;;;;;;7345296;32;20133;-55
2023/03/15 04:47:45;;;;;;;8.93;6.65;;;1.20;99.90;;;;;;7346612;32;20107;-56
2023/03/15 04:51:47;;;;;;;9.68;7.32;;;1.20;99.90;;;;;;7340489;32;20134;-54
2023/03/15 04:55:49;;;;;;;11.63;7.25;;;1.20;99.90;;;;;;7345867;32;20133;-55
2023/03/15 04:59:51;;;;;;;8.85;6.20;;;1.10;99.90;;;;;;7343713;32;20234;-55
2023/03/15 05:03:53;;;;;;;10.10;6.93;;;1.20;99.90;;;;;;7342270;32;20445;-55
2023/03/15 05:07:54;;;;;;;10.18;7.60;;;1.30;99.90;;;;;;7342607;32;20184;-54
2023/03/15 05:11:56;;;;;;;10.65;8.35;;;1.40;99.90;;;;;;7341562;32;20581;-55
2023/03/15 05:15:58;;;;;;;10.73;8.07;;;1.40;99.90;;;;;;7339967;32;20179;-54
2023/03/15 05:20:09;;;;;;;11.93;8.35;;;1.40;99.90;;;;;;7343249;32;20163;-55
2023/03/15 05:24:11;;;;;;;11.80;8.85;;;1.50;99.90;;;;;;7334774;32;20449;-55
2023/03/15 05:28:17;;;;;;;10.80;8.23;;;1.70;99.90;;;;;;7340470;32;20135;-54
2023/03/15 05:32:18;;;;;;;13.07;9.18;;;1.70;99.90;;;;;;7340603;32;20196;-55
2023/03/15 05:36:20;;;;;;;11.30;8.93;;;1.70;99.90;;;;;;7338152;32;20178;-55
2023/03/15 05:40:22;;;;;;;15.32;10.70;;;1.70;99.90;;;;;;7341621;32;20327;-53
2023/03/15 05:44:24;;;;;;;13.57;9.35;;;1.70;99.90;;;;;;7332641;32;20185;-55
2023/03/15 05:48:26;;;;;;;14.15;10.13;;;1.70;99.90;;;;;;7337181;32;20161;-56
2023/03/15 05:52:28;;;;;;;16.02;11.27;;;1.80;99.90;;;;;;7331241;32;20222;-56
2023/03/15 05:56:29;;;;;;;13.68;10.45;;;2.00;99.90;;;;;;7339919;32;20115;-55
2023/03/15 06:00:32;;;;;;;16.00;10.32;;;2.20;99.90;;;;;;7334553;32;20191;-56
2023/03/15 06:04:35;;;;;;;14.13;10.25;;;2.10;99.90;;;;;;7339642;32;20666;-56
2023/03/15 06:08:37;;;;;;;13.82;9.98;;;2.20;99.90;;;;;;7335839;32;20139;-55
2023/03/15 06:12:38;;;;;;;13.48;10.20;;;2.20;99.90;;;;;;7334123;32;20476;-56
2023/03/15 06:16:40;;;;;;;15.20;11.10;;;2.20;99.90;;;;;;7336861;32;20836;-55
2023/03/15 06:20:43;;;;;;;15.43;11.43;;;2.30;99.90;;;;;;7333394;32;20190;-55
2023/03/15 06:24:45;;;;;;;15.65;11.43;;;2.30;99.90;;;;;;7338034;32;21087;-56
2023/03/15 06:28:46;;;;;;;18.02;12.82;;;2.30;99.90;;;;;;7341120;32;20165;-56
2023/03/15 06:32:48;;;;;;;17.48;12.10;;;2.30;99.90;;;;;;7334740;32;20529;-55
2023/03/15 06:36:51;;;;;;;18.77;13.07;;;2.30;99.90;;;;;;7335651;32;20163;-56
2023/03/15 06:40:54;;;;;;;20.73;13.20;;;2.40;99.90;;;;;;7329658;32;20129;-56
2023/03/15 06:44:56;;;;;;;21.00;13.70;;;2.40;99.90;;;;;;7335630;32;20134;-56
2023/03/15 06:48:58;;;;;;;19.98;13.40;;;2.30;99.90;;;;;;7337507;32;20127;-56
2023/03/15 06:52:59;;;;;;;19.65;13.88;;;2.20;99.90;;;;;;7340780;32;20125;-56
2023/03/15 06:57:01;;;;;;;20.83;13.32;;;2.30;99.90;;;;;;7329443;32;20104;-56
2023/03/15 07:01:03;;;;;;;20.23;13.98;;;2.30;99.90;;;;;;7332624;32;20115;-56
2023/03/15 07:07:28;;;;;;;18.70;12.95;;;2.40;99.90;;;;;;7312551;32;20015;-58
2023/03/15 07:11:31;;;;;;;19.50;14.13;;;2.40;99.90;;;;;;7293371;32;20133;-56
2023/03/15 07:15:35;;;;;;;19.65;13.85;;;2.50;99.90;;;;;;7300072;32;20120;-56
2023/03/15 07:19:37;;;;;;;20.33;13.88;;;2.60;99.90;;;;;;7294199;32;20267;-56
2023/03/15 07:23:54;;;;;;;20.62;12.85;;;2.50;99.90;;;;;;7296986;32;20449;-56
2023/03/15 07:27:56;;;;;;;21.95;13.82;;;2.80;99.90;;;;;;7300605;32;20226;-56
2023/03/15 07:32:00;;;;;;;18.67;12.43;;;2.90;99.90;;;;;;7296298;32;20214;-57
2023/03/15 07:36:05;;;;;;;19.12;12.07;;;2.90;99.90;;;;;;7301391;32;20148;-56
2023/03/15 07:40:08;;;;;;;19.62;13.13;;;2.90;99.90;;;;;;7302689;32;20226;-56
2023/03/15 07:44:10;;;;;;;24.10;13.32;;;3.00;99.90;;;;;;7294441;32;20124;-56
2023/03/15 07:48:12;;;;;;;19.75;13.30;;;3.10;99.90;;;;;;7287779;32;20512;-57
2023/03/15 07:52:13;;;;;;;23.20;13.73;;;3.10;99.90;;;;;;7289331;32;20107;-56
2023/03/15 07:56:15;;;;;;;17.85;13.07;;;3.30;99.90;;;;;;7306104;32;20167;-56
2023/03/15 08:00:18;;;;;;;20.12;12.48;;;3.40;99.90;;;;;;7295358;32;20205;-56
2023/03/15 08:04:20;;;;;;;18.80;12.32;;;3.50;99.90;;;;;;7296950;32;20112;-56
2023/03/15 08:08:21;;;;;;;19.90;12.18;;;3.70;99.90;;;;;;7296596;32;20530;-56
2023/03/15 08:12:24;;;;;;;15.52;10.68;;;3.90;99.90;;;;;;7279250;32;22219;-56
2023/03/15 08:16:25;;;;;;;18.85;10.88;;;4.00;99.90;;;;;;7292820;32;20227;-56
2023/03/15 08:20:27;;;;;;;19.40;10.80;;;4.20;99.90;;;;;;7278368;32;20313;-56
2023/03/15 08:24:30;;;;;;;13.88;9.68;;;4.40;99.90;;;;;;7281432;32;20104;-56
2023/03/15 08:28:32;;;;;;;15.07;9.45;;;4.50;99.90;;;;;;7288733;32;20112;-56
2023/03/15 08:32:34;;;;;;;20.00;11.80;;;4.70;99.90;;;;;;7284521;32;20157;-55
2023/03/15 08:36:35;;;;;;;20.55;12.98;;;4.70;99.90;;;;;;7284085;32;20141;-55
2023/03/15 08:40:37;;;;;;;20.05;12.45;;;4.80;99.90;;;;;;7281016;32;20192;-56
2023/03/15 08:44:40;;;;;;;18.00;11.68;;;5.20;99.90;;;;;;7286626;32;20104;-56
2023/03/15 08:48:42;;;;;;;18.60;12.68;;;5.00;99.90;;;;;;7289313;32;20312;-56
2023/03/15 08:52:44;;;;;;;26.00;13.02;;;4.60;99.90;;;;;;7280608;32;20139;-56
2023/03/15 08:56:45;;;;;;;27.50;16.48;;;4.70;99.90;;;;;;7280547;32;20112;-56
2023/03/15 09:00:48;;;;;;;30.30;19.17;;;4.50;99.90;;;;;;7282595;32;20255;-55
2023/03/15 09:04:50;;;;;;;31.02;20.62;;;4.30;99.90;;;;;;7292033;32;20116;-56
2023/03/15 09:08:54;;;;;;;20.40;14.73;;;4.60;99.90;;;;;;7289207;32;20127;-56
2023/03/15 09:12:56;;;;;;;28.67;17.15;;;4.80;99.90;;;;;;7279067;32;20588;-56
2023/03/15 09:16:58;;;;;;;19.62;11.90;;;5.30;99.90;;;;;;7288624;32;20297;-57
2023/03/15 09:21:00;;;;;;;17.10;12.02;;;5.80;99.90;;;;;;7285663;32;20141;-56
2023/03/15 09:25:03;;;;;;;21.40;14.07;;;6.00;99.90;;;;;;7279913;32;20134;-57
2023/03/15 09:29:05;;;;;;;17.85;11.63;;;5.90;99.90;;;;;;7286502;32;20346;-55
2023/03/15 09:33:07;;;;;;;18.40;13.00;;;5.60;99.90;;;;;;7281581;32;20136;-55
2023/03/15 09:37:09;;;;;;;16.92;12.27;;;5.90;99.90;;;;;;7278153;32;20139;-56
2023/03/15 09:41:26;;;;;;;16.17;10.32;;;6.10;99.90;;;;;;7279416;32;20107;-56
2023/03/15 09:45:58;;;;;;;15.30;10.68;;;6.20;99.90;;;;;;7274210;32;20200;-57
2023/03/15 09:50:11;;;;;;;13.85;9.10;;;7.30;99.90;;;;;;7276205;32;20174;-56
2023/03/15 09:54:34;;;;;;;16.20;9.00;;;7.70;99.90;;;;;;7280288;32;20116;-56
2023/03/15 09:58:36;;;;;;;15.13;8.40;;;6.90;99.90;;;;;;7282101;32;20221;-55
2023/03/15 10:02:45;;;;;;;12.80;8.15;;;7.20;99.90;;;;;;7278469;32;20194;-56
2023/03/15 10:06:53;;;;;;;14.68;7.50;;;9.00;99.90;;;;;;7282180;32;20332;-55
2023/03/15 10:11:15;;;;;;;8.65;5.90;;;11.10;99.90;;;;;;7285786;32;20175;-55
2023/03/15 10:15:31;;;;;;;11.77;6.28;;;12.60;99.90;;;;;;7283472;32;20103;-56
2023/03/15 10:19:38;;;;;;;25.62;7.97;;;11.40;99.90;;;;;;7283323;32;20112;-56
2023/03/15 10:23:51;;;;;;;14.38;7.37;;;10.10;99.90;;;;;;7283800;32;20112;-56
2023/03/15 10:27:56;;;;;;;12.63;4.97;;;9.20;99.90;;;;;;7278377;32;20135;-56
2023/03/15 10:31:58;;;;;;;12.68;4.47;;;10.30;99.90;;;;;;7281644;32;20104;-57
2023/03/15 10:36:01;;;;;;;6.80;4.35;;;11.90;99.90;;;;;;7286614;32;20538;-57
2023/03/15 10:40:15;;;;;;;9.57;3.83;;;11.10;99.90;;;;;;7290554;32;20178;-57
2023/03/15 10:44:23;;;;;;;8.57;3.58;;;10.30;99.90;;;;;;7280611;32;20139;-56
2023/03/15 10:48:27;;;;;;;8.43;3.62;;;9.30;99.90;;;;;;7284442;32;20112;-56
2023/03/15 10:52:38;;;;;;;9.68;3.40;;;8.10;99.90;;;;;;7282987;32;20130;-57
2023/03/15 10:57:05;;;;;;;7.82;3.95;;;7.50;99.90;;;;;;7281862;32;20107;-56
2023/03/15 11:01:20;;;;;;;11.23;4.62;;;7.60;99.90;;;;;;7275150;32;20356;-56
2023/03/15 11:05:22;;;;;;;14.32;4.87;;;7.60;99.90;;;;;;7277992;32;20211;-56
2023/03/15 11:09:25;;;;;;;25.52;5.93;;;7.20;99.90;;;;;;7279215;32;20140;-56
2023/03/15 11:13:29;;;;;;;11.00;4.90;;;7.50;99.90;;;;;;7280043;32;20128;-57
2023/03/15 11:17:34;;;;;;;8.88;3.97;;;7.20;99.90;;;;;;7278120;32;20111;-56
2023/03/15 11:21:37;;;;;;;12.95;4.10;;;7.20;99.90;;;;;;7283184;32;20175;-55
2023/03/15 11:25:38;;;;;;;11.35;3.97;;;7.30;99.90;;;;;;7279080;32;20220;-56
2023/03/15 11:29:53;;;;;;;9.68;3.87;;;7.20;99.90;;;;;;7284716;32;20333;-56
2023/03/15 11:34:17;;;;;;;8.57;3.28;;;7.00;99.90;;;;;;7278665;32;20596;-56
2023/03/15 11:38:32;;;;;;;7.30;2.65;;;6.70;99.90;;;;;;7283342;32;20107;-58
2023/03/15 11:42:57;;;;;;;8.73;1.80;;;8.50;99.90;;;;;;7277084;32;20637;-57
2023/03/15 11:47:27;;;;;;;7.68;2.28;;;10.20;99.90;;;;;;7278876;32;20824;-56
2023/03/15 11:51:33;;;;;;;5.40;1.60;;;9.80;99.90;;;;;;7281003;32;20238;-58
2023/03/15 11:55:36;;;;;;;11.63;1.80;;;8.90;99.90;;;;;;7275201;32;20134;-56
2023/03/15 11:59:39;;;;;;;6.75;1.60;;;8.80;99.90;;;;;;7285633;32;20431;-57
2023/03/15 12:03:43;;;;;;;6.43;2.05;;;8.70;99.90;;;;;;7288022;32;20169;-57
2023/03/15 12:08:14;;;;;;;13.13;2.45;;;9.10;99.90;;;;;;7280415;32;20116;-57
2023/03/15 12:12:25;;;;;;;8.60;2.42;;;9.00;99.90;;;;;;7274927;32;20191;-56
2023/03/15 12:16:35;;;;;;;5.93;1.80;;;8.30;99.90;;;;;;7274638;32;20254;-56
2023/03/15 12:20:41;;;;;;;9.68;2.78;;;8.40;99.90;;;;;;7266682;32;20194;-56
2023/03/15 12:24:46;;;;;;;5.25;1.67;;;11.20;99.90;;;;;;7277818;32;20159;-57
2023/03/15 12:29:10;;;;;;;11.10;2.33;;;13.10;97.70;;;;;;7278429;32;20203;-59
2023/03/15 12:33:16;;;;;;;9.82;2.12;;;14.80;85.80;;;;;;7280276;32;20108;-57
2023/03/15 12:37:21;;;;;;;5.22;1.67;;;15.50;82.60;;;;;;7286250;32;20229;-58
2023/03/15 12:41:36;;;;;;;6.40;1.62;;;15.90;65.30;;;;;;7274896;32;20492;-57
2023/03/15 12:45:40;;;;;;;6.30;1.85;;;16.40;65.80;;;;;;7279953;32;20203;-57
2023/03/15 12:49:43;;;;;;;4.70;1.70;;;15.00;66.10;;;;;;7281936;32;20159;-57
2023/03/15 12:53:48;;;;;;;5.47;1.42;;;13.10;64.50;;;;;;7282030;32;20212;-56
2023/03/15 12:57:53;;;;;;;4.60;1.30;;;12.30;70.40;;;;;;7281206;32;20182;-56
2023/03/15 13:01:56;;;;;;;3.35;1.15;;;11.40;67.50;;;;;;7278394;32;20165;-56
2023/03/15 13:06:31;;;;;;;3.97;0.93;;;12.50;69.10;;;;;;7283618;32;20191;-57
2023/03/15 13:10:48;;;;;;;5.50;1.25;;;13.80;65.30;;;;;;7278868;32;20868;-57
2023/03/15 13:15:05;;;;;;;3.47;1.35;;;15.00;60.80;;;;;;7278358;32;20564;-57
2023/03/15 13:19:29;;;;;;;3.65;0.93;;;15.40;58.70;;;;;;7279876;32;20207;-55
2023/03/15 13:23:34;;;;;;;3.85;1.02;;;15.90;58.00;;;;;;7274442;32;20149;-56
2023/03/15 13:27:55;;;;;;;5.37;1.15;;;16.10;57.70;;;;;;7285948;32;20130;-56
2023/03/15 13:32:18;;;;;;;6.97;1.25;;;16.50;54.10;;;;;;7281871;32;20667;-56
2023/03/15 13:36:22;;;;;;;3.17;0.95;;;17.10;52.40;;;;;;7276606;32;20277;-56
2023/03/15 13:40:23;;;;;;;2.15;0.80;;;16.80;54.50;;;;;;7275482;32;20135;-56
2023/03/15 13:44:26;;;;;;;4.68;0.70;;;16.50;53.50;;;;;;7275034;32;20111;-56
2023/03/15 13:48:34;;;;;;;3.70;1.17;;;16.20;51.40;;;;;;7272569;32;20623;-56
2023/03/15 13:52:36;;;;;;;4.37;1.17;;;16.10;50.40;;;;;;7273609;32;20112;-56
2023/03/15 13:57:09;;;;;;;3.53;0.93;;;15.80;50.30;;;;;;7273635;32;20766;-56
2023/03/15 14:01:13;;;;;;;4.78;1.10;;;15.50;50.90;;;;;;7279400;32;20230;-56
2023/03/15 14:05:17;;;;;;;2.70;0.80;;;15.60;50.10;;;;;;7274185;32;20123;-55
2023/03/15 14:09:24;;;;;;;2.80;0.60;;;15.80;52.70;;;;;;7287722;32;20127;-56
2023/03/15 14:13:45;;;;;;;3.75;1.10;;;15.70;51.90;;;;;;7279071;32;20130;-57
2023/03/15 14:17:59;;;;;;;4.90;1.00;;;16.80;51.70;;;;;;7277145;32;20597;-58
2023/03/15 14:22:11;;;;;;;5.87;1.10;;;16.30;46.90;;;;;;7281139;32;20116;-58
2023/03/15 14:26:22;;;;;;;5.07;1.30;;;16.20;53.70;;;;;;7283809;32;20165;-57
2023/03/15 14:30:24;;;;;;;4.07;1.12;;;15.50;54.40;;;;;;7281659;32;20161;-58
2023/03/15 14:34:36;;;;;;;3.40;1.10;;;15.50;55.60;;;;;;7283491;32;20138;-57
2023/03/15 14:38:38;;;;;;;2.53;1.10;;;15.30;53.50;;;;;;7280463;32;20112;-57
2023/03/15 14:42:40;;;;;;;7.62;1.27;;;14.60;54.50;;;;;;7284959;32;20140;-57
2023/03/15 14:46:42;;;;;;;6.47;1.50;;;13.30;54.60;;;;;;7283527;32;20173;-57
2023/03/15 14:50:44;;;;;;;7.05;1.33;;;11.90;58.40;;;;;;7279448;32;20461;-57
2023/03/15 14:54:49;;;;;;;3.97;1.10;;;11.00;62.80;;;;;;7280747;32;20296;-56
2023/03/15 14:58:54;;;;;;;3.70;1.05;;;10.40;64.10;;;;;;7279269;32;20950;-57
2023/03/15 15:02:57;;;;;;;4.70;1.17;;;9.70;68.00;;;;;;7283399;32;20139;-56
2023/03/15 15:07:01;;;;;;;3.62;1.20;;;9.20;71.00;;;;;;7281963;32;20402;-57
2023/03/15 15:11:03;;;;;;;3.85;0.85;;;9.20;69.70;;;;;;7281038;32;20238;-56
2023/03/15 15:15:14;;;;;;;4.05;1.00;;;9.00;73.10;;;;;;7275056;32;20322;-56
2023/03/15 15:19:16;;;;;;;3.97;1.08;;;8.90;79.30;;;;;;7280732;32;20130;-57
2023/03/15 15:23:21;;;;;;;4.95;1.00;;;8.90;80.80;;;;;;7278214;32;20195;-57
2023/03/15 15:27:22;;;;;;;3.35;0.75;;;8.80;81.00;;;;;;7276696;32;20220;-57
2023/03/15 15:31:32;;;;;;;5.35;1.10;;;8.70;81.20;;;;;;7286474;32;20375;-57
2023/03/15 15:35:34;;;;;;;6.57;1.25;;;8.60;82.70;;;;;;7283475;32;20210;-57
2023/03/15 15:39:36;;;;;;;5.40;1.30;;;8.60;85.80;;;;;;7282639;32;20249;-57
2023/03/15 15:43:38;;;;;;;5.25;0.98;;;8.60;84.20;;;;;;7277673;32;20495;-57
2023/03/15 15:47:40;;;;;;;4.15;1.10;;;8.40;83.80;;;;;;7277293;32;20205;-57
2023/03/15 15:51:50;;;;;;;2.60;0.90;;;8.50;87.90;;;;;;7278007;32;20161;-57
2023/03/15 15:55:52;;;;;;;5.03;1.50;;;8.50;84.30;;;;;;7275579;32;20104;-57
2023/03/15 15:59:54;;;;;;;4.07;1.12;;;8.30;84.40;;;;;;7283894;32;20533;-57
2023/03/15 16:03:56;;;;;;;5.68;0.85;;;8.20;89.80;;;;;;7277826;32;20112;-56
2023/03/15 16:08:02;;;;;;;3.83;1.20;;;8.20;84.40;;;;;;7283125;32;20252;-58
2023/03/15 16:12:16;;;;;;;4.75;1.00;;;8.10;87.30;;;;;;7283016;32;20253;-57
2023/03/15 16:16:18;;;;;;;4.03;0.73;;;8.10;88.70;;;;;;7284381;32;20113;-59
2023/03/15 16:20:20;;;;;;;5.93;1.20;;;8.10;86.60;;;;;;7276133;32;20557;-57
2023/03/15 16:24:26;;;;;;;6.22;0.90;;;7.90;87.10;;;;;;7269365;32;20226;-57
2023/03/15 16:28:28;;;;;;;4.13;0.90;;;7.90;87.00;;;;;;7276707;32;20190;-58
2023/03/15 16:32:30;;;;;;;5.90;0.90;;;7.90;88.60;;;;;;7279692;32;20119;-58
2023/03/15 16:36:46;;;;;;;3.83;0.95;;;7.70;88.20;;;;;;7278963;32;20140;-57
2023/03/15 16:40:51;;;;;;;3.15;1.08;;;7.50;90.10;;;;;;7281745;32;20148;-58
2023/03/15 16:44:53;;;;;;;5.05;1.02;;;7.60;90.50;;;;;;7283826;32;20131;-57
2023/03/15 16:48:55;;;;;;;8.07;1.30;;;7.40;91.90;;;;;;7282665;32;20287;-57
2023/03/15 16:53:00;;;;;;;6.85;1.30;;;7.30;93.60;;;;;;7285992;32;20120;-57
2023/03/15 16:57:02;;;;;;;6.18;1.30;;;7.20;93.80;;;;;;7278147;32;20572;-57
2023/03/15 17:01:06;;;;;;;4.05;1.23;;;7.00;95.60;;;;;;7277607;32;20171;-57
2023/03/15 17:05:08;;;;;;;3.28;1.10;;;6.80;97.40;;;;;;7279363;32;20463;-57
2023/03/15 17:09:13;;;;;;;6.65;1.33;;;6.60;98.60;;;;;;7277641;32;20162;-57
2023/03/15 17:13:23;;;;;;;6.57;1.35;;;6.30;99.90;;;;;;7275427;32;20112;-57
2023/03/15 17:17:27;;;;;;;5.65;1.33;;;6.10;99.90;;;;;;7280209;32;20589;-57
2023/03/15 17:21:33;;;;;;;3.05;1.27;;;6.00;99.90;;;;;;7280857;32;20202;-57
2023/03/15 17:25:35;;;;;;;5.22;1.30;;;5.80;99.90;;;;;;7273290;32;20159;-57
2023/03/15 17:29:36;;;;;;;8.77;1.75;;;5.70;99.90;;;;;;7264131;32;20265;-57
2023/03/15 17:33:38;;;;;;;4.20;1.20;;;5.60;99.90;;;;;;7278523;32;20116;-58
2023/03/15 17:37:43;;;;;;;6.20;1.23;;;5.40;99.90;;;;;;7278057;32;20157;-57
2023/03/15 17:41:47;;;;;;;10.65;4.15;;;5.30;99.90;;;;;;7279996;32;20125;-57
2023/03/15 17:45:48;;;;;;;10.52;2.20;;;5.00;99.90;;;;;;7283170;32;20207;-57
2023/03/15 17:49:51;;;;;;;8.18;1.60;;;4.80;99.90;;;;;;7280741;32;20112;-56
2023/03/15 17:53:53;;;;;;;5.57;1.83;;;4.70;99.90;;;;;;7277678;32;21442;-56
2023/03/15 17:57:56;;;;;;;4.15;1.23;;;4.50;99.90;;;;;;7276149;32;20281;-56
2023/03/15 18:01:57;;;;;;;3.85;1.40;;;4.30;99.90;;;;;;7276739;32;20673;-56
2023/03/15 18:06:00;;;;;;;4.45;1.50;;;4.10;99.90;;;;;;7277503;32;20666;-56
2023/03/15 18:10:02;;;;;;;4.87;1.50;;;3.80;99.90;;;;;;7276145;32;20556;-56
2023/03/15 18:14:03;;;;;;;4.93;1.55;;;3.60;99.90;;;;;;7281759;32;20171;-56
2023/03/15 18:18:05;;;;;;;6.62;2.15;;;3.40;99.90;;;;;;7282512;32;20181;-56
2023/03/15 18:22:15;;;;;;;6.93;1.70;;;3.20;99.90;;;;;;7277907;32;20349;-56
2023/03/15 18:26:18;;;;;;;5.20;1.55;;;3.10;99.90;;;;;;7276461;32;20255;-56
2023/03/15 18:30:23;;;;;;;5.57;1.33;;;2.90;99.90;;;;;;7277260;32;20213;-56
2023/03/15 18:34:25;;;;;;;5.45;1.30;;;2.70;99.90;;;;;;7278500;32;20223;-56
2023/03/15 18:38:26;;;;;;;5.47;1.60;;;2.60;99.90;;;;;;7273406;32;20179;-56
2023/03/15 18:42:28;;;;;;;5.53;1.23;;;2.50;99.90;;;;;;7277180;32;20115;-56
2023/03/15 18:46:30;;;;;;;9.50;3.60;;;2.30;99.90;;;;;;7271180;32;20241;-56
2023/03/15 18:50:33;;;;;;;4.25;1.70;;;2.20;99.90;;;;;;7270475;32;20113;-57
2023/03/15 18:54:35;;;;;;;5.37;1.30;;;2.20;99.90;;;;;;7280941;32;20286;-56
2023/03/15 18:58:37;;;;;;;5.10;1.30;;;2.10;99.90;;;;;;7278890;32;20115;-56
2023/03/15 19:02:44;;;;;;;4.47;1.40;;;2.00;99.90;;;;;;7275512;32;20358;-56
2023/03/15 19:06:46;;;;;;;;;;;2.00;99.90;;;;;;7276217;32;20312;-56
2023/03/15 19:10:48;;;;;;;6.07;1.30;;;1.90;99.90;;;;;;7278156;32;20069;-56
2023/03/15 19:14:49;;;;;;;2.65;1.33;;;1.90;99.90;;;;;;7274706;32;20209;-56
2023/03/15 19:18:51;;;;;;;11.68;1.30;;;1.80;99.90;;;;;;7279565;32;20104;-56
2023/03/15 19:22:53;;;;;;;5.15;1.50;;;1.80;99.90;;;;;;7279310;32;20109;-56
2023/03/15 19:26:55;;;;;;;6.68;1.70;;;1.70;99.90;;;;;;7276539;32;20175;-57
2023/03/15 19:30:57;;;;;;;4.07;1.50;;;1.60;99.90;;;;;;7272393;32;20138;-56
2023/03/15 19:34:59;;;;;;;7.57;1.83;;;1.60;99.90;;;;;;7276964;32;20200;-57
2023/03/15 19:39:02;;;;;;;5.32;1.42;;;1.60;99.90;;;;;;7277144;32;20206;-56
2023/03/15 19:43:04;;;;;;;7.90;2.35;;;1.60;99.90;;;;;;7282753;32;20202;-57
2023/03/15 19:47:06;;;;;;;6.57;1.90;;;1.60;99.90;;;;;;7276967;32;20126;-57
2023/03/15 19:51:07;;;;;;;10.45;1.45;;;1.60;99.90;;;;;;7276636;32;20191;-57
2023/03/15 19:55:09;;;;;;;5.12;1.95;;;1.60;99.90;;;;;;7279570;32;20361;-57
2023/03/15 19:59:11;;;;;;;3.55;2.05;;;1.60;99.90;;;;;;7276886;32;20140;-57
2023/03/15 20:03:13;;;;;;;5.82;2.10;;;1.70;99.90;;;;;;7275115;32;20227;-57
2023/03/15 20:07:15;;;;;;;7.37;2.45;;;1.70;99.90;;;;;;7275051;32;20111;-57
2023/03/15 20:11:23;;;;;;;7.40;2.05;;;1.70;99.90;;;;;;7276547;32;20179;-56
2023/03/15 20:15:25;;;;;;;6.35;2.05;;;1.80;99.90;;;;;;7278513;32;20219;-56
2023/03/15 20:19:31;;;;;;;6.40;2.62;;;2.00;99.90;;;;;;7282752;32;20134;-57
2023/03/15 20:23:34;;;;;;;8.82;2.90;;;2.00;99.90;;;;;;7283590;32;20191;-56
2023/03/15 20:27:36;;;;;;;7.95;2.72;;;2.10;99.90;;;;;;7281983;32;20162;-54
2023/03/15 20:31:38;;;;;;;8.07;2.65;;;2.20;99.90;;;;;;7279295;32;20104;-55
2023/03/15 20:35:40;;;;;;;5.80;2.50;;;2.30;99.90;;;;;;7281044;32;20218;-55
2023/03/15 20:39:42;;;;;;;7.53;2.85;;;2.40;99.90;;;;;;7277496;32;20107;-55
2023/03/15 20:43:45;;;;;;;7.30;2.90;;;2.50;99.90;;;;;;7283401;32;20133;-55
2023/03/15 20:47:47;;;;;;;6.00;3.08;;;2.60;99.90;;;;;;7280595;32;20226;-55
2023/03/15 20:51:48;;;;;;;8.27;3.15;;;2.70;99.90;;;;;;7280654;32;20574;-55
2023/03/15 20:55:50;;;;;;;7.82;2.95;;;2.80;99.90;;;;;;7278658;32;20198;-55
2023/03/15 20:59:52;;;;;;;10.20;5.45;;;2.70;99.90;;;;;;7278979;32;20768;-55
2023/03/15 21:03:54;;;;;;;6.55;3.33;;;2.80;99.90;;;;;;7274144;32;20135;-54
2023/03/15 21:07:56;;;;;;;8.10;3.78;;;2.90;99.90;;;;;;7282566;32;20259;-54
2023/03/15 21:11:59;;;;;;;8.27;2.92;;;2.80;99.90;;;;;;7279378;32;20136;-54
2023/03/15 21:16:03;;;;;;;8.93;3.75;;;2.80;99.90;;;;;;7278799;32;20120;-54
2023/03/15 21:20:06;;;;;;;6.20;3.03;;;2.80;99.90;;;;;;7278501;32;20481;-54
2023/03/15 21:24:08;;;;;;;7.65;2.78;;;2.80;99.90;;;;;;7274575;32;20255;-54